Terminal Aerodrome Forecast
Issued by NWS

Home | Current Version | Previous Version | Text Only | Print | Product List | Glossary On
Versions: 1 2 3 4 5 6 7 8 9 10 11 12 13 14 15 16 17 18 19 20 21 22 23 24 25 26 27 28 29 30
000
FTUS46 KMTR 312104 AAA
TAFSFO
TAF AMD
KSFO 312104Z 3121/0124 29018G24KT P6SM FEW010 BKN180
     FM010700 28014KT P6SM BKN010
     FM010900 28011KT P6SM OVC010
     FM011200 28010KT P6SM OVC008
     FM011700 27010KT P6SM FEW010 FEW150=

USA.gov is the U.S. government's official web portal to all federal, state and local government web resources and services.